默认 日期 大小 文件数 浏览量 最新下载 xml
jumper磁力链接相关资源由用户搜索指令自动获取,结果来源于网络,本站不存储任何资料,亦不承担任何责任,请于24小时内删除,搜索到538个磁力,用时1ms。
    {"RARBG.com.txt": 34, "Jumper.2008.720p.BDRip.XviD.AC3-RARBG.avi": 2824484864}
创建时间: 2019-03-30 21:25:20 大小:2.63 GB 文件数量:2 热度:6 最近下载:2024-10-29 00:29:01
    {"www.RARBG.com.txt": 45, "Jumper.2008.720p.BDRip.x264.AC3-RARBG.mkv": 3099197160, "Jumper.2008.720p.BDRip.x264.AC3-RARBG.nfo": 4605}
创建时间: 2019-03-31 07:43:12 大小:2.89 GB 文件数量:3 热度:6 最近下载:2024-10-02 16:06:02
    ... Jumper": {"01 Jumper.mp3": 5210308, "02 Jumper.mp3": 5172587, "03 Jumper.mp3": 5205501, "04 Jumper ... .mp3": 4762360, "05 Jumper.mp3": 5176767 ... , "06 Jumper.mp3": 5143748 ...
创建时间: 2019-04-01 20:44:21 大小:404.36 MB 文件数量:78 热度:6 最近下载:2024-10-01 12:11:01
    ... .BluRay.x264-x0r.jpg": 427308, "Jumper.2008.720p.BluRay.x264-x0r ... .mkv": 1995005706, "Jumper.2008.720p.BluRay.x264-x0r ... .nfo": 54, "Jumper.2008.720p.BluRay.x264-x0r ... .fanart.jpg": 373348, "Jumper.2008.720p.BluRay.x264-x0r ...
创建时间: 2019-04-09 18:40:02 大小:1.9 GB 文件数量:5 热度:6 最近下载:2024-09-26 20:11:01
    {"Sample.avi": 9910272, "RARBG.com.txt": 34, "Jumper.2008.BRRip.XviD.AC3-RARBG.avi": 1564372992}
创建时间: 2019-04-09 21:00:00 大小:1.47 GB 文件数量:3 热度:6 最近下载:2024-10-30 14:39:01
    ... Alix.mp3": 8023049, "01. Mountain Jumper.mp3": 9917449, "05. Varvindar Friska ...
创建时间: 2019-04-09 21:39:36 大小:149.74 MB 文件数量:17 热度:6 最近下载:2024-10-29 22:54:02
    {"Jumper(Lecejs)DVDRip Lat-FANORiP.avi": 730449920, "Jumper(Lecejs)DVDRip Lat-FANORiP.nfo": 3366, "Jumper(Lecejs)DVDRip Lat-FANORiP.sfv": 316, "Jumper(Lecejs)DVDRip Lat-FANORiP.txt": 1667}
创建时间: 2019-04-16 20:01:17 大小:696.62 MB 文件数量:4 热度:6 最近下载:2024-11-01 21:59:02
    {"Jumper (2008)[HDRip-XviD-AC3-ESP][www.lokotorrents.com].avi": 1521188864, "Jumper (2008)[HDRip-XviD-AC3-ESP][www.lokotorrents.com].srt": 61871}
创建时间: 2019-04-16 23:30:02 大小:1.42 GB 文件数量:2 热度:6 最近下载:2024-10-30 12:29:01
    {"RARBG.COM.mp4": 1016764, "RARBG.COM.txt": 34, "Jumper.2008.720p.BluRay.H264.AAC-RARBG.mp4": 1148800640, "Jumper.2008.720p.BluRay.H264.AAC-RARBG.nfo": 3838}
创建时间: 2019-04-16 23:49:29 大小:1.07 GB 文件数量:4 热度:6 最近下载:2024-11-02 20:17:02
    {"simone_jumper_0001.jpg": 1737234, "simone_jumper_0002.jpg": 1646573, "simone_jumper_0003.jpg": 2058114, "simone_jumper_0004.jpg": 1444493, "simone_jumper_0005.jpg": 1426243, "simone_jumper_0006.jpg": 1492972, "simone_jumper_0007.jpg": 1474826, " ...
创建时间: 2019-04-17 19:39:06 大小:155.86 MB 文件数量:105 热度:6 最近下载:2024-12-21 06:13:01
    {"Release-Lounge.com.nfo": 5132, "Downmixing Tutorial.nfo": 4753, "Jumper 2008 BRRip [A Release-Lounge H264].mp4": 1075843534}
创建时间: 2019-04-17 22:36:26 大小:1 GB 文件数量:3 热度:6 最近下载:2024-11-02 21:47:01
    {"点击进入中文字幕下载页.url": 143, "Jumper.2007.720p.BluRay.x264-SiNNERS.mkv": 4695226405, "jumper.2007.720p.bluray.x264-sinners.nfo": 17732, "jumper.2007.720p.bluray.x264.sample-sinners.mkv": 60877700}
创建时间: 2019-04-18 03:10:48 大小:4.43 GB 文件数量:4 热度:94 最近下载:2025-10-14 09:33:02
    {"VIDEO SAMPLE.ts": 27786400, "INFO DOWNLOAD.txt": 326, "Jumper (2008) 1080p-H264-AC 3 (DTS 5.1).mp4": 1755920909}
创建时间: 2019-04-18 05:35:41 大小:1.66 GB 文件数量:3 热度:8 最近下载:2024-11-02 21:26:01
    {"Jumpers.avi": 888982602, "Demonoid.com.txt": 42}
创建时间: 2019-04-20 16:17:56 大小:847.8 MB 文件数量:2 热度:6 最近下载:2024-10-29 22:53:02
    ... Alix.mp3": 8023049, "01. Mountain Jumper.mp3": 9917449, "05. Varvindar Friska ...
创建时间: 2019-04-22 22:23:28 大小:151.95 MB 文件数量:18 热度:5 最近下载:2024-10-08 19:02:04
    {"Sample": {"jumper.2007.720p.bluray.x264.sample-sinners.mkv": 60877700}, "Jumper.2007.720p.BluRay.x264-SiNNERS.mkv": 4695226405, "Jumper.2007.720p.BluRay.x264-SiNNERS.srt": 65293, "jumper.2007.720p.bluray.x264-sinners.nfo": 18548}
创建时间: 2019-04-27 04:36:41 大小:4.43 GB 文件数量:4 热度:5 最近下载:2024-09-02 23:47:01
    {"Infinite Jumper v2.0.JPG": 120715, "Infinite Jumper v2.0.unitypackage": 14199335}
创建时间: 2019-04-30 01:33:39 大小:13.66 MB 文件数量:2 热度:4 最近下载:2024-11-08 14:48:01
    {"INFO.txt": 2560, "Jumper.2008.PL.480p.BRRip.XviD.AC3-SPEC...avi": 2944700416, "ZAPRASZAM patriota123 -DEVIL-TORRENTS.PL..html": 585, "TANIE NIEZAWODNE KONTO SHELL - SPEEDSHELL.PL.jpg": 229004}
创建时间: 2019-05-01 02:15:01 大小:2.74 GB 文件数量:4 热度:5 最近下载:2024-09-13 08:39:02
    {"DVDFILES": {"VIDEO_TS": {"VIDEO_TS.BUP": 20480, "VIDEO_TS.IFO": 20480, "VIDEO_TS.VOB": 145408, "VTS_01_0.BUP": 49152, "VTS_01_0.IFO": 49152, "VTS_01_0.VOB": 10240, "VTS_01_1.VOB": 1035040768, "VTS_02_0.BUP": 81920, "VTS_02_0.IFO": 81920, "VTS_02_0.VOB": ...
创建时间: 2019-05-03 05:47:01 大小:4.31 GB 文件数量:42 热度:4 最近下载:2024-10-07 05:32:02
    {"NewPCT.url": 918, "jumper.jpg": 105160, "Jumper[www.newpct.com].srt": 59385, "MP3 Music albums PCTrecords.url": 223, "http--www.spanishtracker.com-.url": 3120, "Jumper(DVDRip)(2008)[www.newpct.com].avi": 732946432}
创建时间: 2019-05-04 08:56:52 大小:699.15 MB 文件数量:6 热度:4 最近下载:2024-11-03 18:03:01